Time;durP1;ratioP1;P1;durP2;ratioP2;P2;SDS_P1;SDS_P2;PMS_P1;PMS_P2;Temp;Humidity;BMP_temperature;BMP_pressure;BME280_temperature;BME280_humidity;BME280_pressure;Samples;Min_cycle;Max_cycle;Signal;HPM_P1;HPM_P2
2024/01/07 00:00:16;;;;;;;15.82;10.38;;;;;;;;;;5054632;28;20029;-74
2024/01/07 00:02:42;;;;;;;17.35;11.05;;;;;;;;;;5069445;28;20016;-75
2024/01/07 00:05:09;;;;;;;15.77;10.35;;;;;;;;;;5062489;28;20025;-75
2024/01/07 00:07:35;;;;;;;14.48;9.55;;;;;;;;;;5048084;28;20013;-75
2024/01/07 00:10:01;;;;;;;13.98;9.20;;;;;;;;;;5052919;28;20020;-75
2024/01/07 00:12:27;;;;;;;14.68;9.73;;;;;;;;;;5069280;28;20015;-75
2024/01/07 00:14:53;;;;;;;13.27;9.25;;;;;;;;;;5068000;28;20571;-75
2024/01/07 00:17:19;;;;;;;14.20;9.27;;;;;;;;;;5067669;28;20115;-75
2024/01/07 00:19:45;;;;;;;12.25;8.38;;;;;;;;;;5067492;28;20025;-75
2024/01/07 00:22:11;;;;;;;13.07;9.20;;;;;;;;;;5049116;28;20492;-75
2024/01/07 00:24:37;;;;;;;13.90;8.98;;;;;;;;;;5047709;28;20056;-75
2024/01/07 00:27:03;;;;;;;12.80;9.00;;;;;;;;;;5068301;28;20040;-75
2024/01/07 00:29:30;;;;;;;13.32;8.55;;;;;;;;;;5069152;28;20013;-75
2024/01/07 00:31:56;;;;;;;12.40;9.18;;;;;;;;;;5050827;28;20013;-75
2024/01/07 00:34:22;;;;;;;11.95;8.45;;;;;;;;;;5047792;28;20013;-74
2024/01/07 00:36:48;;;;;;;12.52;8.18;;;;;;;;;;5064253;28;20020;-75
2024/01/07 00:39:14;;;;;;;12.82;8.32;;;;;;;;;;5067849;28;20573;-75
2024/01/07 00:41:40;;;;;;;11.55;8.52;;;;;;;;;;5053803;28;20151;-75
2024/01/07 00:44:06;;;;;;;11.20;8.00;;;;;;;;;;5052607;28;20084;-75
2024/01/07 00:46:32;;;;;;;11.63;8.35;;;;;;;;;;5065252;28;20032;-75
2024/01/07 00:48:58;;;;;;;12.20;8.75;;;;;;;;;;5071744;28;20049;-75
2024/01/07 00:51:24;;;;;;;10.45;7.82;;;;;;;;;;5059136;28;20052;-75
2024/01/07 00:53:50;;;;;;;11.63;8.52;;;;;;;;;;5052898;28;20598;-75
2024/01/07 00:56:16;;;;;;;10.20;7.43;;;;;;;;;;5063446;28;20099;-75
2024/01/07 00:58:42;;;;;;;11.30;7.13;;;;;;;;;;5072720;28;20097;-75
2024/01/07 01:01:08;;;;;;;10.45;8.40;;;;;;;;;;5063665;28;20373;-75
2024/01/07 01:03:34;;;;;;;10.95;8.15;;;;;;;;;;5052736;28;20025;-75
2024/01/07 01:06:00;;;;;;;11.82;9.10;;;;;;;;;;5059153;28;20059;-75
2024/01/07 01:08:26;;;;;;;12.93;8.80;;;;;;;;;;5072535;28;20044;-74
2024/01/07 01:10:52;;;;;;;14.00;9.00;;;;;;;;;;5064673;28;20434;-75
2024/01/07 01:13:18;;;;;;;12.98;8.80;;;;;;;;;;5052578;28;20017;-75
2024/01/07 01:15:44;;;;;;;14.68;9.90;;;;;;;;;;5055560;28;20013;-75
2024/01/07 01:18:10;;;;;;;15.98;10.00;;;;;;;;;;5071030;28;20097;-75
2024/01/07 01:20:36;;;;;;;12.95;9.63;;;;;;;;;;5069196;28;20056;-75
2024/01/07 01:23:02;;;;;;;14.20;10.20;;;;;;;;;;5052583;28;20013;-75
2024/01/07 01:25:29;;;;;;;16.15;10.80;;;;;;;;;;5053506;28;20025;-74
2024/01/07 01:27:55;;;;;;;15.02;10.88;;;;;;;;;;5072259;28;20461;-74
2024/01/07 01:30:21;;;;;;;13.52;10.20;;;;;;;;;;5071015;28;20013;-74
2024/01/07 01:32:47;;;;;;;20.80;10.88;;;;;;;;;;5052661;28;20096;-74
2024/01/07 01:35:13;;;;;;;14.57;10.23;;;;;;;;;;5050128;28;20501;-74
2024/01/07 01:37:39;;;;;;;13.70;9.95;;;;;;;;;;5068743;28;20024;-74
2024/01/07 01:40:05;;;;;;;14.50;11.20;;;;;;;;;;5069660;28;20016;-74
2024/01/07 01:42:31;;;;;;;14.00;10.15;;;;;;;;;;5054237;28;20017;-74
2024/01/07 01:45:01;;;;;;;13.95;9.90;;;;;;;;;;5049334;28;20063;-74
2024/01/07 01:47:27;;;;;;;14.33;10.83;;;;;;;;;;5064665;28;20012;-75
2024/01/07 01:49:53;;;;;;;13.63;9.80;;;;;;;;;;5070634;28;20012;-74
2024/01/07 01:52:19;;;;;;;15.13;10.15;;;;;;;;;;5056963;28;20440;-74
2024/01/07 01:54:46;;;;;;;14.50;9.23;;;;;;;;;;5050378;28;20138;-74
2024/01/07 01:57:16;;;;;;;12.30;8.48;;;;;;;;;;5060902;28;20031;-74
2024/01/07 01:59:43;;;;;;;15.43;9.85;;;;;;;;;;5070428;28;20016;-74
2024/01/07 02:02:09;;;;;;;14.25;9.10;;;;;;;;;;5060061;28;20101;-74
2024/01/07 02:04:35;;;;;;;13.75;8.95;;;;;;;;;;5049055;28;20029;-74
2024/01/07 02:07:01;;;;;;;14.63;9.50;;;;;;;;;;5057750;28;20019;-74
2024/01/07 02:09:27;;;;;;;14.70;9.65;;;;;;;;;;5070397;28;20070;-74
2024/01/07 02:12:06;;;;;;;12.25;9.18;;;;;;;;;;5061931;28;20020;-74
2024/01/07 02:14:32;;;;;;;14.63;9.43;;;;;;;;;;5050143;28;20035;-74
2024/01/07 02:16:58;;;;;;;15.50;9.70;;;;;;;;;;5055979;28;20013;-74
2024/01/07 02:19:24;;;;;;;13.90;10.13;;;;;;;;;;5069030;28;20070;-74
2024/01/07 02:21:51;;;;;;;14.77;9.13;;;;;;;;;;5063209;28;20271;-74
2024/01/07 02:24:17;;;;;;;16.85;10.25;;;;;;;;;;5048665;28;20009;-74
2024/01/07 02:26:43;;;;;;;13.52;9.10;;;;;;;;;;5054475;28;20036;-75
2024/01/07 02:29:09;;;;;;;14.13;9.25;;;;;;;;;;5070125;28;20013;-74
2024/01/07 02:31:35;;;;;;;13.13;9.65;;;;;;;;;;5065575;28;20016;-74
2024/01/07 02:34:01;;;;;;;14.18;9.45;;;;;;;;;;5049957;28;20445;-74
2024/01/07 02:36:51;;;;;;;13.52;8.38;;;;;;;;;;5066260;28;21277;-75
2024/01/07 02:39:17;;;;;;;13.10;9.13;;;;;;;;;;5066376;28;20013;-76
2024/01/07 02:41:43;;;;;;;15.48;9.85;;;;;;;;;;5066315;28;20389;-75
2024/01/07 02:44:09;;;;;;;13.85;8.82;;;;;;;;;;5066435;28;20013;-75
2024/01/07 02:46:35;;;;;;;15.23;9.32;;;;;;;;;;5066248;28;20017;-75
2024/01/07 02:49:01;;;;;;;14.20;9.13;;;;;;;;;;5064885;28;20090;-75
2024/01/07 02:51:27;;;;;;;11.40;8.25;;;;;;;;;;5065403;28;20013;-75
2024/01/07 02:53:53;;;;;;;12.20;8.32;;;;;;;;;;5064816;28;20016;-75
2024/01/07 02:56:19;;;;;;;10.45;7.07;;;;;;;;;;5066121;28;20032;-75
2024/01/07 02:58:45;;;;;;;12.43;7.85;;;;;;;;;;5064882;28;20078;-75
2024/01/07 03:01:11;;;;;;;12.45;8.40;;;;;;;;;;5064694;28;20013;-75
2024/01/07 03:03:37;;;;;;;13.68;8.13;;;;;;;;;;5064706;28;20013;-75
2024/01/07 03:06:04;;;;;;;10.73;7.22;;;;;;;;;;5066127;28;20416;-75
2024/01/07 03:08:30;;;;;;;12.13;7.80;;;;;;;;;;5064739;28;20047;-75
2024/01/07 03:10:56;;;;;;;12.38;7.70;;;;;;;;;;5064703;28;20248;-75
2024/01/07 03:13:22;;;;;;;10.98;7.82;;;;;;;;;;5064434;28;20035;-75
2024/01/07 03:15:48;;;;;;;10.70;7.30;;;;;;;;;;5064390;28;20024;-75
2024/01/07 03:18:14;;;;;;;11.13;7.43;;;;;;;;;;5064371;28;20111;-75
2024/01/07 03:20:40;;;;;;;9.45;7.25;;;;;;;;;;5064275;28;20037;-75
2024/01/07 03:23:06;;;;;;;11.98;7.60;;;;;;;;;;5064221;28;20017;-75
2024/01/07 03:25:32;;;;;;;10.50;7.00;;;;;;;;;;5065634;28;20024;-75
2024/01/07 03:27:58;;;;;;;13.18;7.85;;;;;;;;;;5065439;28;20524;-75
2024/01/07 03:30:24;;;;;;;12.50;8.25;;;;;;;;;;5065460;28;20062;-75
2024/01/07 03:32:50;;;;;;;13.00;8.15;;;;;;;;;;5064241;28;20059;-75
2024/01/07 03:35:16;;;;;;;12.07;8.07;;;;;;;;;;5065077;28;20055;-75
2024/01/07 03:37:42;;;;;;;11.27;7.53;;;;;;;;;;5063700;28;20020;-75
2024/01/07 03:40:11;;;;;;;12.65;8.30;;;;;;;;;;5065442;28;20062;-75
2024/01/07 03:42:37;;;;;;;11.70;8.10;;;;;;;;;;5065162;28;20039;-75
2024/01/07 03:45:04;;;;;;;10.88;8.05;;;;;;;;;;5065035;28;20754;-75
2024/01/07 03:47:31;;;;;;;11.05;7.32;;;;;;;;;;5054309;28;20354;-75
2024/01/07 03:49:57;;;;;;;10.68;7.00;;;;;;;;;;5050617;28;20013;-75
2024/01/07 03:52:23;;;;;;;9.63;6.63;;;;;;;;;;5051894;28;20041;-75
2024/01/07 03:54:49;;;;;;;10.70;6.45;;;;;;;;;;5050313;28;20114;-75
2024/01/07 03:57:15;;;;;;;9.57;6.20;;;;;;;;;;5051726;28;20079;-75
2024/01/07 03:59:41;;;;;;;8.38;6.03;;;;;;;;;;5050379;28;20021;-75
2024/01/07 04:02:07;;;;;;;9.80;6.00;;;;;;;;;;5050284;28;20108;-75
2024/01/07 04:04:33;;;;;;;8.88;6.00;;;;;;;;;;5050310;28;20663;-75
2024/01/07 04:06:59;;;;;;;7.88;5.85;;;;;;;;;;5051572;28;20461;-75
2024/01/07 04:09:25;;;;;;;8.68;5.80;;;;;;;;;;5050039;28;20017;-75
2024/01/07 04:11:51;;;;;;;9.60;6.13;;;;;;;;;;5050252;28;20291;-75
2024/01/07 04:14:17;;;;;;;7.68;5.50;;;;;;;;;;5050058;28;20025;-75
2024/01/07 04:16:43;;;;;;;8.02;5.00;;;;;;;;;;5050080;28;20033;-75
2024/01/07 04:19:09;;;;;;;7.40;5.28;;;;;;;;;;5051319;28;20040;-75
2024/01/07 04:21:35;;;;;;;9.18;5.60;;;;;;;;;;5051203;28;20350;-75
2024/01/07 04:24:01;;;;;;;8.55;5.28;;;;;;;;;;5049872;28;20028;-74
2024/01/07 04:26:27;;;;;;;7.43;5.50;;;;;;;;;;5050115;28;20094;-75
2024/01/07 04:28:53;;;;;;;6.20;4.95;;;;;;;;;;5050042;28;20049;-75
2024/01/07 04:31:19;;;;;;;9.70;4.88;;;;;;;;;;5050105;28;20020;-76
2024/01/07 04:33:45;;;;;;;6.72;4.28;;;;;;;;;;5049640;28;20021;-76
2024/01/07 04:36:11;;;;;;;7.47;4.38;;;;;;;;;;5049560;28;20037;-75
2024/01/07 04:38:37;;;;;;;6.70;4.18;;;;;;;;;;5050911;28;20087;-75
2024/01/07 04:41:06;;;;;;;8.23;4.32;;;;;;;;;;5049554;28;20373;-75
2024/01/07 04:43:32;;;;;;;5.15;3.75;;;;;;;;;;5049570;28;20017;-75
2024/01/07 04:45:58;;;;;;;8.00;4.38;;;;;;;;;;5049523;28;20102;-75
2024/01/07 04:48:24;;;;;;;5.93;4.10;;;;;;;;;;5050832;28;20472;-75
2024/01/07 04:50:50;;;;;;;5.75;3.75;;;;;;;;;;5050741;28;20088;-75
2024/01/07 04:53:16;;;;;;;6.15;4.00;;;;;;;;;;5049217;28;20104;-75
2024/01/07 04:55:42;;;;;;;6.05;3.70;;;;;;;;;;5049297;28;20017;-75
2024/01/07 04:58:08;;;;;;;7.53;4.10;;;;;;;;;;5048237;28;20017;-75
2024/01/07 05:00:35;;;;;;;5.57;4.40;;;;;;;;;;5048936;28;20530;-75
2024/01/07 05:03:01;;;;;;;6.90;4.20;;;;;;;;;;5049078;28;20021;-75
2024/01/07 05:05:27;;;;;;;6.55;3.78;;;;;;;;;;5049461;28;20032;-75
2024/01/07 05:07:53;;;;;;;6.20;3.85;;;;;;;;;;5050300;28;20051;-75
2024/01/07 05:10:19;;;;;;;5.55;4.03;;;;;;;;;;5048846;28;20499;-75
2024/01/07 05:12:45;;;;;;;3.83;3.42;;;;;;;;;;5049005;28;20560;-75
2024/01/07 05:15:11;;;;;;;6.38;4.20;;;;;;;;;;5050148;28;20101;-75
2024/01/07 05:17:37;;;;;;;5.97;3.75;;;;;;;;;;5048917;28;20016;-75
2024/01/07 05:20:03;;;;;;;5.63;4.10;;;;;;;;;;5050110;28;20021;-76
2024/01/07 05:22:29;;;;;;;7.68;3.78;;;;;;;;;;5050484;28;20009;-75
2024/01/07 05:24:55;;;;;;;4.63;3.80;;;;;;;;;;5049886;28;20021;-75
2024/01/07 05:27:21;;;;;;;5.88;4.30;;;;;;;;;;5049976;28;20056;-75
2024/01/07 05:29:47;;;;;;;5.30;3.40;;;;;;;;;;5048764;28;20013;-75
2024/01/07 05:32:13;;;;;;;6.05;3.42;;;;;;;;;;5049870;28;20388;-76
2024/01/07 05:34:39;;;;;;;6.88;3.40;;;;;;;;;;5049586;28;20021;-75
2024/01/07 05:37:05;;;;;;;5.53;2.78;;;;;;;;;;5049429;28;20028;-75
2024/01/07 05:39:31;;;;;;;5.18;3.25;;;;;;;;;;5049554;28;20508;-75
2024/01/07 05:41:57;;;;;;;5.35;3.15;;;;;;;;;;5049547;28;20048;-75
2024/01/07 05:44:23;;;;;;;4.50;2.88;;;;;;;;;;5047592;28;20067;-75
2024/01/07 05:46:49;;;;;;;5.03;2.65;;;;;;;;;;5049668;28;20009;-75
2024/01/07 05:49:15;;;;;;;5.72;3.00;;;;;;;;;;5049090;28;20100;-75
2024/01/07 05:51:41;;;;;;;4.20;2.88;;;;;;;;;;5048285;28;20075;-75
2024/01/07 05:54:07;;;;;;;4.15;2.80;;;;;;;;;;5047729;28;20036;-75
2024/01/07 05:56:39;;;;;;;4.28;2.90;;;;;;;;;;5047830;28;20049;-75
2024/01/07 05:59:05;;;;;;;4.82;2.47;;;;;;;;;;5049031;28;20056;-76
2024/01/07 06:01:30;;;;;;;5.03;2.60;;;;;;;;;;5047733;28;20037;-75
2024/01/07 06:03:56;;;;;;;4.50;2.83;;;;;;;;;;5048971;28;20682;-77
2024/01/07 06:06:22;;;;;;;6.88;3.08;;;;;;;;;;5047463;28;20033;-74
2024/01/07 06:08:48;;;;;;;4.20;2.60;;;;;;;;;;5049364;28;20017;-72
2024/01/07 06:11:18;;;;;;;5.20;2.58;;;;;;;;;;5047478;28;20385;-73
2024/01/07 06:13:45;;;;;;;5.28;2.67;;;;;;;;;;5048081;28;20017;-75
2024/01/07 06:16:11;;;;;;;4.40;2.65;;;;;;;;;;5045550;28;20032;-73
2024/01/07 06:18:37;;;;;;;4.68;2.88;;;;;;;;;;5038518;28;20025;-75
2024/01/07 06:21:03;;;;;;;5.20;2.08;;;;;;;;;;5054818;28;20389;-74
2024/01/07 06:23:29;;;;;;;5.93;2.58;;;;;;;;;;5065391;28;20032;-75
2024/01/07 06:25:55;;;;;;;4.80;2.60;;;;;;;;;;5054915;28;20021;-75
2024/01/07 06:28:21;;;;;;;4.45;2.25;;;;;;;;;;5047730;28;20025;-75
2024/01/07 06:30:47;;;;;;;2.65;2.10;;;;;;;;;;5047782;28;20104;-74
2024/01/07 06:33:13;;;;;;;4.13;2.00;;;;;;;;;;5047578;28;20028;-75
2024/01/07 06:35:39;;;;;;;4.43;2.30;;;;;;;;;;5047547;28;20044;-74
2024/01/07 06:38:05;;;;;;;3.95;2.30;;;;;;;;;;5047840;28;20021;-74
2024/01/07 06:40:32;;;;;;;2.22;1.95;;;;;;;;;;5048771;28;20073;-74
2024/01/07 06:42:58;;;;;;;3.22;2.13;;;;;;;;;;5047317;28;20105;-74
2024/01/07 06:45:24;;;;;;;4.28;1.95;;;;;;;;;;5048961;28;20104;-75
2024/01/07 06:47:50;;;;;;;3.72;2.33;;;;;;;;;;5047184;28;20040;-75
2024/01/07 06:50:16;;;;;;;4.50;2.45;;;;;;;;;;5049502;28;20020;-74
2024/01/07 06:52:42;;;;;;;2.97;1.90;;;;;;;;;;5056509;28;20021;-74
2024/01/07 06:55:08;;;;;;;4.80;2.10;;;;;;;;;;5047585;28;20476;-74
2024/01/07 06:57:34;;;;;;;2.58;1.85;;;;;;;;;;5048819;28;20462;-74
2024/01/07 07:00:00;;;;;;;4.13;2.40;;;;;;;;;;5047347;28;20067;-74
2024/01/07 07:02:26;;;;;;;3.05;2.15;;;;;;;;;;5048724;28;20021;-75
2024/01/07 07:04:52;;;;;;;3.53;2.45;;;;;;;;;;5047450;28;20313;-75
2024/01/07 07:07:18;;;;;;;2.35;1.85;;;;;;;;;;5046998;28;20108;-74
2024/01/07 07:09:44;;;;;;;4.88;2.08;;;;;;;;;;5054205;28;20032;-74
2024/01/07 07:12:12;;;;;;;3.85;3.08;;;;;;;;;;5057383;28;20048;-74
2024/01/07 07:14:38;;;;;;;3.65;2.60;;;;;;;;;;5061484;28;20019;-74
2024/01/07 07:17:04;;;;;;;4.57;2.15;;;;;;;;;;5052090;28;20022;-75
2024/01/07 07:19:30;;;;;;;4.03;2.40;;;;;;;;;;5047448;28;20024;-74
2024/01/07 07:21:56;;;;;;;3.95;2.90;;;;;;;;;;5048191;28;20021;-75
2024/01/07 07:24:22;;;;;;;3.58;2.60;;;;;;;;;;5051192;28;20017;-75
2024/01/07 07:26:48;;;;;;;3.53;2.70;;;;;;;;;;5051022;28;20029;-74
2024/01/07 07:29:14;;;;;;;4.13;2.10;;;;;;;;;;5051243;28;20551;-75
2024/01/07 07:31:40;;;;;;;2.95;2.40;;;;;;;;;;5051178;28;20116;-74
2024/01/07 07:34:10;;;;;;;4.40;2.30;;;;;;;;;;5050939;28;20490;-75
2024/01/07 07:36:36;;;;;;;3.25;2.38;;;;;;;;;;5050675;28;20044;-74
2024/01/07 07:39:02;;;;;;;3.13;2.20;;;;;;;;;;5052653;28;20059;-74
2024/01/07 07:41:28;;;;;;;4.30;2.60;;;;;;;;;;5050672;28;20017;-74
2024/01/07 07:43:54;;;;;;;5.93;2.42;;;;;;;;;;5050440;28;20029;-75
2024/01/07 07:46:20;;;;;;;4.72;2.78;;;;;;;;;;5048868;28;20519;-74
2024/01/07 07:48:47;;;;;;;2.95;2.50;;;;;;;;;;5050356;28;20507;-74
2024/01/07 07:51:13;;;;;;;2.95;2.40;;;;;;;;;;5051670;28;20021;-74
2024/01/07 07:53:42;;;;;;;3.53;2.20;;;;;;;;;;5053146;28;20021;-74
2024/01/07 07:56:08;;;;;;;3.72;2.70;;;;;;;;;;5050343;28;20531;-74
2024/01/07 07:58:34;;;;;;;4.97;2.72;;;;;;;;;;5043361;28;20385;-74
2024/01/07 08:01:00;;;;;;;3.42;2.47;;;;;;;;;;5036225;28;20017;-73
2024/01/07 08:03:27;;;;;;;3.40;2.50;;;;;;;;;;5038332;28;20381;-74
2024/01/07 08:05:53;;;;;;;5.75;2.72;;;;;;;;;;5035457;28;20721;-75
2024/01/07 08:08:19;;;;;;;5.47;3.03;;;;;;;;;;5047847;28;20143;-75
2024/01/07 08:10:45;;;;;;;7.25;4.45;;;;;;;;;;5043692;28;20484;-75
2024/01/07 08:13:11;;;;;;;3.90;2.55;;;;;;;;;;5048079;28;20028;-75
2024/01/07 08:15:37;;;;;;;7.78;4.30;;;;;;;;;;5050460;28;20021;-74
2024/01/07 08:18:04;;;;;;;7.25;3.88;;;;;;;;;;5043153;28;20107;-73
2024/01/07 08:20:31;;;;;;;5.85;3.60;;;;;;;;;;5049099;28;20020;-73
2024/01/07 08:22:57;;;;;;;6.32;3.70;;;;;;;;;;5049423;28;20079;-73
2024/01/07 08:25:23;;;;;;;5.78;3.50;;;;;;;;;;5049504;28;20689;-73
2024/01/07 08:27:49;;;;;;;5.43;3.13;;;;;;;;;;5046012;28;20474;-73
2024/01/07 08:30:15;;;;;;;6.95;3.55;;;;;;;;;;5033803;28;20014;-73
2024/01/07 08:32:41;;;;;;;8.45;4.65;;;;;;;;;;5044749;28;20473;-73
2024/01/07 08:35:07;;;;;;;5.82;3.63;;;;;;;;;;5048732;28;20237;-73
2024/01/07 08:37:33;;;;;;;8.07;4.40;;;;;;;;;;5050141;28;20028;-73
2024/01/07 08:39:59;;;;;;;6.68;3.60;;;;;;;;;;5050395;28;20017;-73
2024/01/07 08:42:26;;;;;;;11.23;5.70;;;;;;;;;;5048905;28;20029;-73
2024/01/07 08:44:52;;;;;;;8.48;5.18;;;;;;;;;;5049078;28;20039;-75
2024/01/07 08:47:18;;;;;;;9.00;4.80;;;;;;;;;;5046805;28;20392;-75
2024/01/07 08:49:44;;;;;;;7.85;4.07;;;;;;;;;;5046924;28;20032;-75
2024/01/07 08:52:10;;;;;;;6.25;3.53;;;;;;;;;;5047289;28;20329;-74
2024/01/07 08:54:36;;;;;;;12.80;6.38;;;;;;;;;;5037066;28;20508;-74
2024/01/07 08:57:02;;;;;;;7.20;4.50;;;;;;;;;;5042852;28;20114;-74
2024/01/07 08:59:28;;;;;;;10.15;4.35;;;;;;;;;;5043429;28;20036;-75
2024/01/07 09:01:54;;;;;;;5.47;4.18;;;;;;;;;;5038040;28;20032;-74
2024/01/07 09:04:20;;;;;;;5.63;3.65;;;;;;;;;;5049567;28;20021;-74
2024/01/07 09:06:46;;;;;;;5.07;3.10;;;;;;;;;;5050506;28;20021;-74
2024/01/07 09:09:12;;;;;;;6.95;3.30;;;;;;;;;;5048414;28;20029;-74
2024/01/07 09:11:38;;;;;;;5.03;2.78;;;;;;;;;;5044983;28;20056;-75
2024/01/07 09:14:05;;;;;;;3.78;3.05;;;;;;;;;;5040904;28;20061;-75
2024/01/07 09:16:31;;;;;;;4.50;2.97;;;;;;;;;;5040816;28;20412;-74
2024/01/07 09:18:57;;;;;;;4.75;2.97;;;;;;;;;;5040907;28;20029;-75
2024/01/07 09:21:23;;;;;;;4.75;3.00;;;;;;;;;;5037757;28;20028;-75
2024/01/07 09:23:49;;;;;;;5.00;3.50;;;;;;;;;;5049006;28;20477;-74
2024/01/07 09:26:16;;;;;;;4.05;2.92;;;;;;;;;;5047796;28;20127;-74
2024/01/07 09:28:42;;;;;;;4.35;2.67;;;;;;;;;;5047818;28;20083;-74
2024/01/07 09:31:08;;;;;;;5.60;2.80;;;;;;;;;;5041826;28;20108;-75
2024/01/07 09:33:35;;;;;;;3.28;2.70;;;;;;;;;;5048982;28;20013;-74
2024/01/07 09:36:01;;;;;;;2.75;2.35;;;;;;;;;;5046166;28;20048;-75
2024/01/07 09:38:27;;;;;;;2.88;2.50;;;;;;;;;;5045066;28;20541;-74
2024/01/07 09:40:53;;;;;;;3.40;2.83;;;;;;;;;;5047749;28;20393;-74
2024/01/07 09:43:19;;;;;;;3.72;2.78;;;;;;;;;;5047525;28;20431;-74
2024/01/07 09:45:49;;;;;;;2.90;2.45;;;;;;;;;;5042081;28;20021;-74
2024/01/07 09:48:15;;;;;;;3.00;2.40;;;;;;;;;;5049098;28;20013;-75
2024/01/07 09:50:42;;;;;;;3.00;2.50;;;;;;;;;;5047565;28;20020;-75
2024/01/07 09:53:12;;;;;;;4.22;3.25;;;;;;;;;;5048994;28;20017;-74
2024/01/07 09:55:46;;;;;;;3.67;2.50;;;;;;;;;;5048471;28;20108;-74
2024/01/07 09:58:12;;;;;;;2.63;2.28;;;;;;;;;;5048774;28;20461;-75
2024/01/07 10:00:38;;;;;;;4.82;2.53;;;;;;;;;;5047731;28;20028;-74
2024/01/07 10:03:04;;;;;;;2.78;2.47;;;;;;;;;;5036433;28;20032;-74
2024/01/07 10:05:30;;;;;;;2.50;2.30;;;;;;;;;;5049004;28;20371;-74
2024/01/07 10:07:57;;;;;;;3.65;2.47;;;;;;;;;;5047612;28;20043;-75
2024/01/07 10:10:23;;;;;;;3.22;1.98;;;;;;;;;;5037222;28;20109;-74
2024/01/07 10:12:52;;;;;;;2.85;2.25;;;;;;;;;;5046557;28;20074;-75
2024/01/07 10:15:19;;;;;;;3.60;2.00;;;;;;;;;;5039238;28;20079;-74
2024/01/07 10:17:45;;;;;;;3.42;2.45;;;;;;;;;;5046053;28;20117;-74
2024/01/07 10:20:12;;;;;;;3.40;2.90;;;;;;;;;;5041468;28;20559;-74
2024/01/07 10:22:39;;;;;;;4.50;2.50;;;;;;;;;;5039881;28;20021;-74
2024/01/07 10:25:06;;;;;;;2.88;2.50;;;;;;;;;;5043701;28;20020;-75
2024/01/07 10:27:35;;;;;;;3.25;2.28;;;;;;;;;;5048488;28;20087;-74
2024/01/07 10:30:02;;;;;;;5.07;2.50;;;;;;;;;;5044463;28;20032;-74
2024/01/07 10:32:29;;;;;;;3.17;2.30;;;;;;;;;;5040169;28;20021;-74
2024/01/07 10:34:58;;;;;;;2.90;2.35;;;;;;;;;;5047524;28;20037;-74
2024/01/07 10:37:24;;;;;;;4.95;2.63;;;;;;;;;;5047568;28;20017;-74
2024/01/07 10:39:50;;;;;;;3.78;2.45;;;;;;;;;;5033317;28;20370;-74
2024/01/07 10:42:18;;;;;;;3.15;2.35;;;;;;;;;;5036927;28;20017;-74
2024/01/07 10:44:44;;;;;;;5.10;2.70;;;;;;;;;;5036344;28;20025;-74
2024/01/07 10:47:11;;;;;;;3.17;2.70;;;;;;;;;;5040754;28;20052;-74
2024/01/07 10:49:37;;;;;;;2.78;2.58;;;;;;;;;;5029890;28;20026;-74
2024/01/07 10:52:04;;;;;;;6.00;3.08;;;;;;;;;;5046543;28;20036;-76
2024/01/07 10:54:31;;;;;;;5.00;3.03;;;;;;;;;;5047438;28;20024;-74
2024/01/07 10:57:00;;;;;;;4.40;2.70;;;;;;;;;;5037451;28;20021;-74
2024/01/07 10:59:28;;;;;;;5.53;2.85;;;;;;;;;;5050017;28;20397;-74
2024/01/07 11:01:54;;;;;;;2.70;2.50;;;;;;;;;;5039851;28;20071;-74
2024/01/07 11:04:43;;;;;;;4.70;2.30;;;;;;;;;;5040221;28;20064;-75
2024/01/07 11:07:15;;;;;;;3.47;2.75;;;;;;;;;;5045250;28;20017;-74
2024/01/07 11:10:00;;;;;;;5.93;3.63;;;;;;;;;;5050137;28;20086;-74
2024/01/07 11:12:26;;;;;;;5.10;3.55;;;;;;;;;;5040028;28;20029;-74
2024/01/07 11:14:52;;;;;;;5.50;3.15;;;;;;;;;;5049381;28;20059;-74
2024/01/07 11:17:37;;;;;;;4.75;3.05;;;;;;;;;;5047206;28;20025;-74
2024/01/07 11:20:08;;;;;;;3.30;2.78;;;;;;;;;;5039972;28;20472;-75
2024/01/07 11:22:34;;;;;;;3.88;3.30;;;;;;;;;;5048814;28;20538;-75
2024/01/07 11:25:01;;;;;;;3.42;3.10;;;;;;;;;;5047637;28;20033;-75
2024/01/07 11:27:33;;;;;;;4.82;3.30;;;;;;;;;;5052357;28;20084;-75
2024/01/07 11:30:06;;;;;;;5.45;3.10;;;;;;;;;;5052126;28;20067;-75
2024/01/07 11:32:34;;;;;;;5.85;3.00;;;;;;;;;;5050527;28;20033;-75
2024/01/07 11:35:02;;;;;;;4.15;3.10;;;;;;;;;;5046045;28;20042;-75
2024/01/07 11:37:28;;;;;;;5.75;3.35;;;;;;;;;;5050669;28;20103;-75
2024/01/07 11:39:58;;;;;;;7.82;5.00;;;;;;;;;;5047647;28;20024;-75
2024/01/07 11:42:24;;;;;;;5.95;3.13;;;;;;;;;;5050574;28;20028;-75
2024/01/07 11:44:54;;;;;;;8.82;4.53;;;;;;;;;;5048482;28;20466;-75
2024/01/07 11:47:21;;;;;;;7.40;4.35;;;;;;;;;;5050287;28;20025;-74
2024/01/07 11:49:47;;;;;;;7.63;4.00;;;;;;;;;;5047755;28;20125;-75
2024/01/07 11:52:13;;;;;;;3.95;2.95;;;;;;;;;;5035792;28;20037;-75
2024/01/07 11:54:39;;;;;;;6.25;3.60;;;;;;;;;;5054223;28;20025;-75
2024/01/07 11:57:06;;;;;;;5.05;3.38;;;;;;;;;;5058573;28;20064;-75
2024/01/07 11:59:32;;;;;;;3.58;3.15;;;;;;;;;;5048527;28;20454;-75
2024/01/07 12:02:00;;;;;;;5.22;3.70;;;;;;;;;;5054821;28;20448;-75
2024/01/07 12:04:26;;;;;;;6.93;4.30;;;;;;;;;;5047411;28;20497;-75
2024/01/07 12:06:52;;;;;;;4.15;3.30;;;;;;;;;;5055848;28;20265;-74
2024/01/07 12:09:18;;;;;;;6.68;3.78;;;;;;;;;;5054346;28;20536;-75
2024/01/07 12:11:44;;;;;;;5.95;3.83;;;;;;;;;;5050360;28;20108;-75
2024/01/07 12:14:11;;;;;;;4.80;3.15;;;;;;;;;;5053850;28;20375;-75
2024/01/07 12:16:37;;;;;;;5.53;2.85;;;;;;;;;;5059367;28;20651;-76
2024/01/07 12:19:03;;;;;;;4.88;3.60;;;;;;;;;;5050666;28;20021;-75
2024/01/07 12:21:29;;;;;;;4.22;3.30;;;;;;;;;;5051091;28;20048;-75
2024/01/07 12:23:56;;;;;;;4.93;3.47;;;;;;;;;;5048108;28;20028;-75
2024/01/07 12:26:26;;;;;;;5.22;3.35;;;;;;;;;;5057647;28;20416;-75
2024/01/07 12:28:54;;;;;;;4.68;2.80;;;;;;;;;;5046059;28;20064;-75
2024/01/07 12:31:20;;;;;;;4.88;2.70;;;;;;;;;;5054720;28;20045;-76
2024/01/07 12:33:47;;;;;;;5.47;2.97;;;;;;;;;;5056472;28;20443;-76
2024/01/07 12:36:13;;;;;;;5.00;2.45;;;;;;;;;;5054693;28;20037;-76
2024/01/07 12:38:39;;;;;;;3.63;2.63;;;;;;;;;;5054219;28;20029;-75
2024/01/07 12:41:05;;;;;;;5.43;3.13;;;;;;;;;;5055351;28;20016;-76
2024/01/07 12:43:31;;;;;;;4.65;3.20;;;;;;;;;;5037144;28;20158;-76
2024/01/07 12:46:03;;;;;;;5.13;3.20;;;;;;;;;;5037769;28;20543;-76
2024/01/07 12:48:29;;;;;;;4.63;3.33;;;;;;;;;;5037990;28;20032;-76
2024/01/07 12:50:55;;;;;;;5.43;2.80;;;;;;;;;;5040806;28;20417;-76
2024/01/07 12:53:21;;;;;;;4.47;3.08;;;;;;;;;;5045792;28;20025;-76
2024/01/07 12:55:47;;;;;;;5.63;3.35;;;;;;;;;;5041859;28;20043;-75
2024/01/07 12:58:13;;;;;;;7.07;3.20;;;;;;;;;;5043940;28;20588;-76
2024/01/07 13:00:40;;;;;;;6.38;3.40;;;;;;;;;;5047780;28;20025;-75
2024/01/07 13:03:08;;;;;;;4.90;3.75;;;;;;;;;;5039915;28;20021;-75
2024/01/07 13:05:34;;;;;;;6.25;4.20;;;;;;;;;;5048624;28;20025;-75
2024/01/07 13:08:00;;;;;;;6.28;3.80;;;;;;;;;;5035334;28;20703;-75
2024/01/07 13:10:27;;;;;;;4.20;3.10;;;;;;;;;;5037313;28;20491;-76
2024/01/07 13:12:53;;;;;;;8.20;4.25;;;;;;;;;;5041367;28;20013;-76
2024/01/07 13:15:19;;;;;;;7.70;4.93;;;;;;;;;;5048683;28;20561;-75
2024/01/07 13:17:45;;;;;;;8.88;4.50;;;;;;;;;;5047880;28;20021;-76
2024/01/07 13:20:11;;;;;;;6.95;3.05;;;;;;;;;;5047404;28;20013;-75
2024/01/07 13:22:38;;;;;;;5.22;3.40;;;;;;;;;;5049710;28;20017;-75
2024/01/07 13:25:05;;;;;;;6.90;4.13;;;;;;;;;;5045095;28;20045;-76
2024/01/07 13:27:31;;;;;;;7.43;4.82;;;;;;;;;;5036124;28;20029;-76
2024/01/07 13:29:57;;;;;;;5.68;3.95;;;;;;;;;;5047515;28;20018;-75
2024/01/07 13:32:23;;;;;;;4.00;3.42;;;;;;;;;;5047520;28;20021;-76
2024/01/07 13:34:49;;;;;;;7.05;4.20;;;;;;;;;;5047140;28;20037;-76
2024/01/07 13:37:15;;;;;;;6.78;4.68;;;;;;;;;;5047400;28;20378;-76
2024/01/07 13:39:41;;;;;;;6.47;3.92;;;;;;;;;;5047671;28;20106;-75
2024/01/07 13:42:07;;;;;;;5.50;3.60;;;;;;;;;;5047061;28;20096;-76
2024/01/07 13:44:34;;;;;;;7.38;3.60;;;;;;;;;;5047422;28;20112;-76
2024/01/07 13:47:05;;;;;;;5.18;3.58;;;;;;;;;;5047006;28;20024;-75
2024/01/07 13:49:32;;;;;;;5.60;3.63;;;;;;;;;;5048944;28;20025;-76
2024/01/07 13:51:58;;;;;;;5.32;3.38;;;;;;;;;;5048454;28;20075;-75
2024/01/07 13:54:24;;;;;;;6.97;3.40;;;;;;;;;;5048461;28;20489;-76
2024/01/07 13:56:50;;;;;;;4.57;3.00;;;;;;;;;;5046656;28;20031;-76
2024/01/07 13:59:17;;;;;;;8.02;3.47;;;;;;;;;;5048240;28;20017;-76
2024/01/07 14:01:43;;;;;;;7.50;3.55;;;;;;;;;;5046989;28;20016;-76
2024/01/07 14:04:09;;;;;;;8.90;5.35;;;;;;;;;;5046890;28;20087;-75
2024/01/07 14:06:35;;;;;;;8.70;4.57;;;;;;;;;;5047739;28;20358;-76
2024/01/07 14:09:03;;;;;;;5.47;3.80;;;;;;;;;;5047162;28;20074;-76
2024/01/07 14:11:29;;;;;;;6.35;4.05;;;;;;;;;;5040313;28;20058;-75
2024/01/07 14:13:55;;;;;;;6.55;3.78;;;;;;;;;;5047011;28;20423;-75
2024/01/07 14:16:21;;;;;;;6.50;3.90;;;;;;;;;;5046638;28;20025;-75
2024/01/07 14:18:47;;;;;;;7.47;3.38;;;;;;;;;;5047570;28;20017;-75
2024/01/07 14:21:13;;;;;;;5.45;4.20;;;;;;;;;;5048622;28;20479;-76
2024/01/07 14:23:39;;;;;;;7.00;4.43;;;;;;;;;;5046917;28;20021;-75
2024/01/07 14:26:05;;;;;;;7.40;4.22;;;;;;;;;;5046595;28;20017;-75
2024/01/07 14:28:31;;;;;;;5.43;3.40;;;;;;;;;;5048427;28;20029;-75
2024/01/07 14:30:58;;;;;;;8.85;3.97;;;;;;;;;;5047441;28;20036;-76
2024/01/07 14:33:24;;;;;;;10.90;7.18;;;;;;;;;;5043276;28;20083;-75